Time;durP1;ratioP1;P1;durP2;ratioP2;P2;SDS_P1;SDS_P2;PMS_P1;PMS_P2;Temp;Humidity;BMP_temperature;BMP_pressure;BME280_temperature;BME280_humidity;BME280_pressure;Samples;Min_cycle;Max_cycle;Signal;HPM_P1;HPM_P2
2022/07/07 00:00:05;;;;;;;;;;;;;;;;;;1046187;28;3963;-50
2022/07/07 00:00:55;;;;;;;;;;;;;;;;;;1040904;28;4443;-49
2022/07/07 00:01:26;;;;;;;;;;;;;;;;;;1042101;28;1711;-48
2022/07/07 00:01:56;;;;;;;;;;;;;;;;;;1040913;28;3872;-51
2022/07/07 00:02:27;;;;;;;;;;;;;;;;;;1044424;28;1734;-51
2022/07/07 00:02:57;;;;;;;;;;;;;;;;;;1044933;28;3819;-49
2022/07/07 00:03:27;;;;;;;;;;;;;;;;;;1043871;28;2232;-53
2022/07/07 00:03:57;;;;;;;;;;;;;;;;;;1044495;28;4014;-49
2022/07/07 00:04:28;;;;;;;;;;;;;;;;;;1046395;28;1361;-51
2022/07/07 00:04:58;;;;;;;;;;;;;;;;;;1044677;28;4419;-48
2022/07/07 00:05:28;;;;;;;;;;;;;;;;;;1047060;28;1391;-52
2022/07/07 00:05:59;;;;;;;;;;;;;;;;;;1044867;28;3826;-48
2022/07/07 00:06:29;;;;;;;;;;;;;;;;;;1046311;28;2230;-48
2022/07/07 00:06:59;;;;;;;;;;;;;;;;;;1044398;28;3849;-51
2022/07/07 00:07:30;;;;;;;;;;;;;;;;;;1038052;28;3784;-50
2022/07/07 00:08:00;;;;;;;;;;;;;;;;;;1037170;28;3949;-50
2022/07/07 00:08:30;;;;;;;;;;;;;;;;;;1038124;28;2862;-50
2022/07/07 00:09:00;;;;;;;;;;;;;;;;;;1036849;28;3937;-50
2022/07/07 00:09:31;;;;;;;;;;;;;;;;;;1046257;28;1575;-48
2022/07/07 00:10:01;;;;;;;;;;;;;;;;;;1045040;28;3817;-51
2022/07/07 00:10:31;;;;;;;;;;;;;;;;;;1045815;28;1799;-49
2022/07/07 00:11:02;;;;;;;;;;;;;;;;;;1045156;28;3804;-50
2022/07/07 00:11:32;;;;;;;;;;;;;;;;;;1046102;28;3475;-48
2022/07/07 00:12:02;;;;;;;;;;;;;;;;;;1045570;28;3817;-49
2022/07/07 00:12:33;;;;;;;;;;;;;;;;;;1045993;28;1389;-51
2022/07/07 00:13:03;;;;;;;;;;;;;;;;;;1043845;28;4101;-51
2022/07/07 00:13:33;;;;;;;;;;;;;;;;;;1045120;28;3317;-48
2022/07/07 00:14:07;;;;;;;;;;;;;;;;;;1044608;28;4111;-48
2022/07/07 00:14:37;;;;;;;;;;;;;;;;;;1042196;28;2786;-47
2022/07/07 00:15:08;;;;;;;;;;;;;;;;;;1040555;28;4477;-51
2022/07/07 00:15:38;;;;;;;;;;;;;;;;;;1040890;28;1512;-49
2022/07/07 00:16:08;;;;;;;;;;;;;;;;;;1041010;28;4106;-48
2022/07/07 00:16:39;;;;;;;;;;;;;;;;;;1042222;28;1788;-52
2022/07/07 00:17:09;;;;;;;;;;;;;;;;;;1040704;28;3922;-47
2022/07/07 00:17:40;;;;;;;;;;;;;;;;;;1042522;28;4324;-46
2022/07/07 00:18:10;;;;;;;;;;;;;;;;;;1042387;28;4384;-51
2022/07/07 00:18:40;;;;;;;;;;;;;;;;;;1045766;28;1747;-51
2022/07/07 00:19:11;;;;;;;;;;;;;;;;;;1045310;28;4380;-50
2022/07/07 00:19:41;;;;;;;;;;;;;;;;;;1045001;28;1613;-54
2022/07/07 00:20:11;;;;;;;;;;;;;;;;;;1045726;28;3941;-49
2022/07/07 00:20:41;;;;;;;;;;;;;;;;;;1043009;28;3810;-49
2022/07/07 00:21:12;;;;;;;;;;;;;;;;;;1043962;28;3882;-49
2022/07/07 00:21:42;;;;;;;;;;;;;;;;;;1044644;28;3562;-50
2022/07/07 00:22:12;;;;;;;;;;;;;;;;;;1045909;28;3934;-51
2022/07/07 00:22:49;;;;;;;;;;;;;;;;;;1041349;28;3866;-51
2022/07/07 00:23:19;;;;;;;;;;;;;;;;;;1038139;28;5140;-46
2022/07/07 00:23:49;;;;;;;;;;;;;;;;;;1039675;28;3311;-52
2022/07/07 00:24:20;;;;;;;;;;;;;;;;;;1040430;28;3796;-49
2022/07/07 00:24:50;;;;;;;;;;;;;;;;;;1041361;28;4501;-50
2022/07/07 00:25:20;;;;;;;;;;;;;;;;;;1042799;28;1574;-51
2022/07/07 00:25:51;;;;;;;;;;;;;;;;;;1040554;28;4249;-47
2022/07/07 00:26:21;;;;;;;;;;;;;;;;;;1042292;28;3995;-52
2022/07/07 00:26:51;;;;;;;;;;;;;;;;;;1043179;28;3836;-51
2022/07/07 00:27:22;;;;;;;;;;;;;;;;;;1045401;28;1610;-49
2022/07/07 00:27:52;;;;;;;;;;;;;;;;;;1044418;28;4038;-50
2022/07/07 00:28:22;;;;;;;;;;;;;;;;;;1045040;28;3783;-48
2022/07/07 00:28:52;;;;;;;;;;;;;;;;;;1044159;28;4489;-47
2022/07/07 00:29:23;;;;;;;;;;;;;;;;;;1045362;28;2871;-49
2022/07/07 00:29:53;;;;;;;;;;;;;;;;;;1045380;28;3834;-48
2022/07/07 00:30:23;;;;;;;;;;;;;;;;;;1046017;28;3798;-49
2022/07/07 00:30:54;;;;;;;;;;;;;;;;;;1044804;28;3979;-48
2022/07/07 00:31:24;;;;;;;;;;;;;;;;;;1046497;28;1301;-48
2022/07/07 00:31:54;;;;;;;;;;;;;;;;;;1044908;28;3936;-48
2022/07/07 00:32:24;;;;;;;;;;;;;;;;;;1045739;28;3633;-50
2022/07/07 00:32:55;;;;;;;;;;;;;;;;;;1044355;28;3813;-51
2022/07/07 00:33:25;;;;;;;;;;;;;;;;;;1045879;28;2050;-49
2022/07/07 00:33:55;;;;;;;;;;;;;;;;;;1044224;28;4503;-52
2022/07/07 00:34:25;;;;;;;;;;;;;;;;;;1045646;28;3708;-48
2022/07/07 00:34:56;;;;;;;;;;;;;;;;;;1045277;28;4008;-47
2022/07/07 00:35:26;;;;;;;;;;;;;;;;;;1042815;28;3916;-49
2022/07/07 00:35:56;;;;;;;;;;;;;;;;;;1040702;28;4289;-48
2022/07/07 00:36:26;;;;;;;;;;;;;;;;;;1042783;28;1728;-46
2022/07/07 00:36:57;;;;;;;;;;;;;;;;;;1039516;28;3995;-50
2022/07/07 00:37:27;;;;;;;;;;;;;;;;;;1046002;28;3596;-52
2022/07/07 00:37:57;;;;;;;;;;;;;;;;;;1045015;28;3987;-46
2022/07/07 00:38:28;;;;;;;;;;;;;;;;;;1046206;28;1664;-48
2022/07/07 00:38:58;;;;;;;;;;;;;;;;;;1044904;28;3820;-52
2022/07/07 00:39:28;;;;;;;;;;;;;;;;;;1045538;28;3939;-52
2022/07/07 00:39:59;;;;;;;;;;;;;;;;;;1045431;28;3956;-48
2022/07/07 00:40:29;;;;;;;;;;;;;;;;;;1045989;28;3803;-46
2022/07/07 00:40:59;;;;;;;;;;;;;;;;;;1044466;28;3784;-51
2022/07/07 00:41:29;;;;;;;;;;;;;;;;;;1045101;28;1577;-47
2022/07/07 00:42:13;;;;;;;;;;;;;;;;;;1043771;28;4029;-50
2022/07/07 00:42:51;;;;;;;;;;;;;;;;;;1041362;28;4193;-49
2022/07/07 00:43:21;;;;;;;;;;;;;;;;;;1040001;28;4038;-52
2022/07/07 00:43:51;;;;;;;;;;;;;;;;;;1042600;28;4513;-46
2022/07/07 00:44:22;;;;;;;;;;;;;;;;;;1041693;28;3824;-46
2022/07/07 00:44:52;;;;;;;;;;;;;;;;;;1044978;28;3859;-49
2022/07/07 00:45:23;;;;;;;;;;;;;;;;;;1044505;28;3969;-48
2022/07/07 00:45:53;;;;;;;;;;;;;;;;;;1044917;28;4428;-49
2022/07/07 00:46:41;;;;;;;;;;;;;;;;;;1045012;28;3246;-47
2022/07/07 00:47:11;;;;;;;;;;;;;;;;;;1044159;28;3870;-48
2022/07/07 00:47:42;;;;;;;;;;;;;;;;;;1044796;28;3666;-45
2022/07/07 00:48:12;;;;;;;;;;;;;;;;;;1045506;28;4228;-52
2022/07/07 00:48:43;;;;;;;;;;;;;;;;;;1044397;28;3677;-50
2022/07/07 00:49:13;;;;;;;;;;;;;;;;;;1045728;28;4116;-50
2022/07/07 00:49:44;;;;;;;;;;;;;;;;;;1046498;28;1777;-50
2022/07/07 00:50:14;;;;;;;;;;;;;;;;;;1045527;28;4458;-47
2022/07/07 00:50:45;;;;;;;;;;;;;;;;;;1044548;28;3599;-50
2022/07/07 00:51:15;;;;;;;;;;;;;;;;;;1046326;28;4365;-51
2022/07/07 00:51:45;;;;;;;;;;;;;;;;;;1044483;28;3396;-47
2022/07/07 00:52:16;;;;;;;;;;;;;;;;;;1046198;28;3772;-47
2022/07/07 00:52:47;;;;;;;;;;;;;;;;;;1044907;28;1867;-49
2022/07/07 00:53:17;;;;;;;;;;;;;;;;;;1040463;28;3786;-51
2022/07/07 00:53:47;;;;;;;;;;;;;;;;;;1042016;28;1635;-49
2022/07/07 00:54:18;;;;;;;;;;;;;;;;;;1037695;28;3968;-49
2022/07/07 00:54:55;;;;;;;;;;;;;;;;;;1037746;28;3125;-47
2022/07/07 00:55:26;;;;;;;;;;;;;;;;;;1041291;28;3820;-48
2022/07/07 00:55:56;;;;;;;;;;;;;;;;;;1042466;28;3862;-51
2022/07/07 00:56:26;;;;;;;;;;;;;;;;;;1046097;28;1664;-48
2022/07/07 00:56:57;;;;;;;;;;;;;;;;;;1041129;28;4348;-46
2022/07/07 00:57:27;;;;;;;;;;;;;;;;;;1042003;28;3706;-48
2022/07/07 00:57:58;;;;;;;;;;;;;;;;;;1038748;28;4247;-46
2022/07/07 00:58:28;;;;;;;;;;;;;;;;;;1039414;28;1275;-47
2022/07/07 00:59:07;;;;;;;;;;;;;;;;;;1037985;28;3997;-47
2022/07/07 00:59:38;;;;;;;;;;;;;;;;;;1034975;28;1658;-50
2022/07/07 01:00:10;;;;;;;;;;;;;;;;;;1038069;28;3870;-50
2022/07/07 01:00:41;;;;;;;;;;;;;;;;;;1030419;28;3839;-53
2022/07/07 01:01:12;;;;;;;;;;;;;;;;;;1032804;28;3821;-50
2022/07/07 01:01:42;;;;;;;;;;;;;;;;;;1036700;28;1653;-49
2022/07/07 01:02:12;;;;;;;;;;;;;;;;;;1035278;28;4073;-52
2022/07/07 01:02:43;;;;;;;;;;;;;;;;;;1044935;28;3803;-47
2022/07/07 01:03:13;;;;;;;;;;;;;;;;;;1042948;28;4005;-52
2022/07/07 01:03:43;;;;;;;;;;;;;;;;;;1045889;28;2165;-48
2022/07/07 01:04:14;;;;;;;;;;;;;;;;;;1045010;28;3945;-49
2022/07/07 01:04:44;;;;;;;;;;;;;;;;;;1045652;28;1993;-47
2022/07/07 01:05:16;;;;;;;;;;;;;;;;;;1045124;28;3808;-50
2022/07/07 01:05:48;;;;;;;;;;;;;;;;;;1044604;28;3458;-50
2022/07/07 01:06:19;;;;;;;;;;;;;;;;;;1045500;28;3887;-49
2022/07/07 01:06:50;;;;;;;;;;;;;;;;;;1044000;28;3704;-52
2022/07/07 01:07:20;;;;;;;;;;;;;;;;;;1044897;28;3973;-48
2022/07/07 01:07:51;;;;;;;;;;;;;;;;;;1045353;28;3802;-53
2022/07/07 01:08:21;;;;;;;;;;;;;;;;;;1040309;28;1878;-53
2022/07/07 01:08:52;;;;;;;;;;;;;;;;;;1040539;28;4011;-52
2022/07/07 01:09:22;;;;;;;;;;;;;;;;;;1040432;28;1814;-53
2022/07/07 01:09:54;;;;;;;;;;;;;;;;;;1039691;28;4416;-49
2022/07/07 01:10:24;;;;;;;;;;;;;;;;;;1044609;28;3960;-49
2022/07/07 01:10:54;;;;;;;;;;;;;;;;;;1045425;28;4285;-51
2022/07/07 01:11:25;;;;;;;;;;;;;;;;;;1045243;28;2122;-48
2022/07/07 01:11:56;;;;;;;;;;;;;;;;;;1045378;28;3840;-48
2022/07/07 01:12:31;;;;;;;;;;;;;;;;;;1045349;28;1743;-48
2022/07/07 01:13:02;;;;;;;;;;;;;;;;;;1046056;28;4290;-49
2022/07/07 01:13:32;;;;;;;;;;;;;;;;;;1043757;28;3870;-45
2022/07/07 01:14:03;;;;;;;;;;;;;;;;;;1046081;28;3822;-50
2022/07/07 01:14:33;;;;;;;;;;;;;;;;;;1045232;28;1595;-47
2022/07/07 01:15:04;;;;;;;;;;;;;;;;;;1045955;28;3970;-48
2022/07/07 01:15:34;;;;;;;;;;;;;;;;;;1045533;28;1664;-48
2022/07/07 01:16:05;;;;;;;;;;;;;;;;;;1045579;28;3903;-48
2022/07/07 01:16:35;;;;;;;;;;;;;;;;;;1044213;28;2468;-47
2022/07/07 01:17:05;;;;;;;;;;;;;;;;;;1039428;28;4151;-49
2022/07/07 01:17:36;;;;;;;;;;;;;;;;;;1040425;28;3747;-51
2022/07/07 01:18:06;;;;;;;;;;;;;;;;;;1040856;28;4052;-49
2022/07/07 01:18:36;;;;;;;;;;;;;;;;;;1039672;28;1795;-49
2022/07/07 01:19:07;;;;;;;;;;;;;;;;;;1044974;28;3825;-52
2022/07/07 01:19:37;;;;;;;;;;;;;;;;;;1045187;28;1808;-48
2022/07/07 01:20:09;;;;;;;;;;;;;;;;;;1043258;28;3999;-46
2022/07/07 01:20:41;;;;;;;;;;;;;;;;;;1044932;28;2388;-47
2022/07/07 01:21:13;;;;;;;;;;;;;;;;;;1041117;28;3942;-49
2022/07/07 01:21:57;;;;;;;;;;;;;;;;;;1042779;28;1674;-47
2022/07/07 01:22:28;;;;;;;;;;;;;;;;;;1042000;28;3701;-49
2022/07/07 01:22:59;;;;;;;;;;;;;;;;;;1042646;28;4432;-51
2022/07/07 01:23:29;;;;;;;;;;;;;;;;;;1046190;28;1624;-49
2022/07/07 01:23:59;;;;;;;;;;;;;;;;;;1044176;28;3915;-51
2022/07/07 01:24:30;;;;;;;;;;;;;;;;;;1046265;28;1640;-45
2022/07/07 01:25:00;;;;;;;;;;;;;;;;;;1045321;28;4072;-49
2022/07/07 01:25:30;;;;;;;;;;;;;;;;;;1045450;28;1792;-47
2022/07/07 01:26:01;;;;;;;;;;;;;;;;;;1045483;28;4003;-50
2022/07/07 01:26:31;;;;;;;;;;;;;;;;;;1045352;28;1762;-49
2022/07/07 01:27:12;;;;;;;;;;;;;;;;;;1044944;28;3876;-49
2022/07/07 01:27:42;;;;;;;;;;;;;;;;;;1044617;28;2682;-48
2022/07/07 01:28:12;;;;;;;;;;;;;;;;;;1043858;28;4239;-50
2022/07/07 01:28:43;;;;;;;;;;;;;;;;;;1043976;28;3617;-49
2022/07/07 01:29:13;;;;;;;;;;;;;;;;;;1045625;28;4213;-52
2022/07/07 01:29:48;;;;;;;;;;;;;;;;;;1044555;28;1580;-50
2022/07/07 01:30:19;;;;;;;;;;;;;;;;;;1041804;28;3797;-49
2022/07/07 01:30:49;;;;;;;;;;;;;;;;;;1041137;28;3937;-47
2022/07/07 01:31:20;;;;;;;;;;;;;;;;;;1040588;28;3668;-50
2022/07/07 01:31:50;;;;;;;;;;;;;;;;;;1040386;28;4297;-49
2022/07/07 01:32:21;;;;;;;;;;;;;;;;;;1040153;28;1514;-51
2022/07/07 01:32:51;;;;;;;;;;;;;;;;;;1044026;28;3907;-47
2022/07/07 01:33:21;;;;;;;;;;;;;;;;;;1045617;28;2618;-51
2022/07/07 01:33:51;;;;;;;;;;;;;;;;;;1044140;28;4356;-52
2022/07/07 01:34:22;;;;;;;;;;;;;;;;;;1045900;28;4059;-45
2022/07/07 01:34:52;;;;;;;;;;;;;;;;;;1044826;28;4316;-49
2022/07/07 01:35:22;;;;;;;;;;;;;;;;;;1045739;28;1430;-51
2022/07/07 01:35:53;;;;;;;;;;;;;;;;;;1044970;28;3820;-47
2022/07/07 01:36:23;;;;;;;;;;;;;;;;;;1045765;28;1678;-48
2022/07/07 01:36:53;;;;;;;;;;;;;;;;;;1043672;28;3829;-50
2022/07/07 01:37:26;;;;;;;;;;;;;;;;;;1045929;28;1823;-48
2022/07/07 01:37:56;;;;;;;;;;;;;;;;;;1044916;28;3922;-50
2022/07/07 01:38:27;;;;;;;;;;;;;;;;;;1045631;28;1614;-50
2022/07/07 01:38:57;;;;;;;;;;;;;;;;;;1045235;28;4486;-50
2022/07/07 01:39:27;;;;;;;;;;;;;;;;;;1045330;28;3731;-48
2022/07/07 01:39:58;;;;;;;;;;;;;;;;;;1040444;28;3845;-48
2022/07/07 01:40:28;;;;;;;;;;;;;;;;;;1041544;28;3801;-51
2022/07/07 01:40:58;;;;;;;;;;;;;;;;;;1041047;28;3807;-50
2022/07/07 01:41:29;;;;;;;;;;;;;;;;;;1040129;28;3234;-48
2022/07/07 01:42:13;;;;;;;;;;;;;;;;;;1043776;28;4330;-53
2022/07/07 01:42:50;;;;;;;;;;;;;;;;;;1037748;28;3810;-46
2022/07/07 01:43:20;;;;;;;;;;;;;;;;;;1035981;28;2482;-47
2022/07/07 01:43:50;;;;;;;;;;;;;;;;;;1035263;28;3820;-49
2022/07/07 01:44:21;;;;;;;;;;;;;;;;;;1035956;28;2522;-48
2022/07/07 01:44:51;;;;;;;;;;;;;;;;;;1037258;28;3916;-46
2022/07/07 01:45:21;;;;;;;;;;;;;;;;;;1035740;28;2587;-48
2022/07/07 01:45:52;;;;;;;;;;;;;;;;;;1036965;28;3986;-48
2022/07/07 01:46:22;;;;;;;;;;;;;;;;;;1036565;28;1361;-46
2022/07/07 01:46:59;;;;;;;;;;;;;;;;;;1035253;28;3954;-49
2022/07/07 01:47:30;;;;;;;;;;;;;;;;;;1037335;28;1725;-49
2022/07/07 01:48:00;;;;;;;;;;;;;;;;;;1035896;28;3790;-52
2022/07/07 01:48:32;;;;;;;;;;;;;;;;;;1042453;28;1399;-45
2022/07/07 01:49:02;;;;;;;;;;;;;;;;;;1036044;28;5213;-48
2022/07/07 01:49:33;;;;;;;;;;;;;;;;;;1036809;28;1571;-49
2022/07/07 01:50:04;;;;;;;;;;;;;;;;;;1035522;28;3898;-49
2022/07/07 01:50:35;;;;;;;;;;;;;;;;;;1037271;28;1456;-51
2022/07/07 01:51:05;;;;;;;;;;;;;;;;;;1034436;28;3956;-48
2022/07/07 01:51:35;;;;;;;;;;;;;;;;;;1036782;28;2558;-49
2022/07/07 01:52:06;;;;;;;;;;;;;;;;;;1037095;28;3990;-46
2022/07/07 01:52:36;;;;;;;;;;;;;;;;;;1036155;28;1672;-47
2022/07/07 01:53:06;;;;;;;;;;;;;;;;;;1036719;28;3956;-52
2022/07/07 01:53:37;;;;;;;;;;;;;;;;;;1036091;28;1285;-48
2022/07/07 01:54:07;;;;;;;;;;;;;;;;;;1037120;28;3791;-53
2022/07/07 01:54:38;;;;;;;;;;;;;;;;;;1036741;28;1526;-46
2022/07/07 01:55:08;;;;;;;;;;;;;;;;;;1036951;28;5187;-47
2022/07/07 01:55:38;;;;;;;;;;;;;;;;;;1036501;28;1765;-52
2022/07/07 01:56:09;;;;;;;;;;;;;;;;;;1037526;28;3983;-50
2022/07/07 01:56:39;;;;;;;;;;;;;;;;;;1035865;28;2998;-47
2022/07/07 01:57:09;;;;;;;;;;;;;;;;;;1040546;28;4409;-47
2022/07/07 01:57:39;;;;;;;;;;;;;;;;;;1040002;28;1914;-48
2022/07/07 01:58:10;;;;;;;;;;;;;;;;;;1040907;28;4112;-49
2022/07/07 01:58:40;;;;;;;;;;;;;;;;;;1039936;28;3988;-51
2022/07/07 01:59:11;;;;;;;;;;;;;;;;;;1036589;28;4155;-50
2022/07/07 01:59:41;;;;;;;;;;;;;;;;;;1036365;28;4097;-46
2022/07/07 02:00:12;;;;;;;;;;;;;;;;;;1036488;28;3915;-47
2022/07/07 02:00:42;;;;;;;;;;;;;;;;;;1037829;28;1679;-48
2022/07/07 02:01:12;;;;;;;;;;;;;;;;;;1035249;28;4070;-47
2022/07/07 02:01:43;;;;;;;;;;;;;;;;;;1036000;28;3737;-51
2022/07/07 02:02:13;;;;;;;;;;;;;;;;;;1041134;28;3838;-49
2022/07/07 02:02:44;;;;;;;;;;;;;;;;;;1041502;28;2314;-47
2022/07/07 02:03:14;;;;;;;;;;;;;;;;;;1040984;28;4405;-48
2022/07/07 02:03:44;;;;;;;;;;;;;;;;;;1041434;28;1460;-47
2022/07/07 02:04:15;;;;;;;;;;;;;;;;;;1035709;28;3811;-49
2022/07/07 02:04:45;;;;;;;;;;;;;;;;;;1033523;28;3738;-52
2022/07/07 02:05:15;;;;;;;;;;;;;;;;;;1032762;28;4367;-48
2022/07/07 02:05:45;;;;;;;;;;;;;;;;;;1028548;28;2740;-48
2022/07/07 02:06:16;;;;;;;;;;;;;;;;;;1033469;28;4069;-47
2022/07/07 02:06:46;;;;;;;;;;;;;;;;;;1037325;28;3909;-48
2022/07/07 02:07:16;;;;;;;;;;;;;;;;;;1033557;28;3975;-49
2022/07/07 02:07:48;;;;;;;;;;;;;;;;;;1036400;28;3029;-49
2022/07/07 02:08:18;;;;;;;;;;;;;;;;;;1035981;28;3959;-51
2022/07/07 02:08:48;;;;;;;;;;;;;;;;;;1036476;28;1622;-49
2022/07/07 02:09:18;;;;;;;;;;;;;;;;;;1036129;28;3807;-50
2022/07/07 02:09:48;;;;;;;;;;;;;;;;;;1036471;28;1465;-51
2022/07/07 02:11:14;;;;;;;;;;;;;;;;;;1036042;28;4610;-48
2022/07/07 02:11:44;;;;;;;;;;;;;;;;;;1036893;28;3839;-48
2022/07/07 02:12:15;;;;;;;;;;;;;;;;;;1036402;28;4253;-51
2022/07/07 02:12:45;;;;;;;;;;;;;;;;;;1037054;28;1775;-53
2022/07/07 02:13:15;;;;;;;;;;;;;;;;;;1035695;28;3795;-52
2022/07/07 02:13:47;;;;;;;;;;;;;;;;;;1036609;28;3974;-51
2022/07/07 02:14:17;;;;;;;;;;;;;;;;;;1033044;28;4061;-51
2022/07/07 02:14:47;;;;;;;;;;;;;;;;;;1028064;28;1715;-49
2022/07/07 02:15:18;;;;;;;;;;;;;;;;;;1026544;28;3879;-47
2022/07/07 02:15:48;;;;;;;;;;;;;;;;;;1026793;28;4151;-48
2022/07/07 02:16:19;;;;;;;;;;;;;;;;;;1035802;28;4927;-54
2022/07/07 02:16:50;;;;;;;;;;;;;;;;;;1036543;28;3884;-51
2022/07/07 02:17:20;;;;;;;;;;;;;;;;;;1037388;28;1607;-47
2022/07/07 02:17:50;;;;;;;;;;;;;;;;;;1041312;28;3802;-48
2022/07/07 02:18:20;;;;;;;;;;;;;;;;;;1036901;28;3781;-49
2022/07/07 02:18:53;;;;;;;;;;;;;;;;;;1036705;28;3810;-47
2022/07/07 02:19:23;;;;;;;;;;;;;;;;;;1036151;28;1965;-48
2022/07/07 02:19:53;;;;;;;;;;;;;;;;;;1035960;28;3912;-50
2022/07/07 02:20:24;;;;;;;;;;;;;;;;;;1035287;28;3921;-47
2022/07/07 02:20:54;;;;;;;;;;;;;;;;;;1035987;28;3862;-49
2022/07/07 02:21:25;;;;;;;;;;;;;;;;;;1036585;28;1941;-48
2022/07/07 02:21:55;;;;;;;;;;;;;;;;;;1034379;28;3811;-53
2022/07/07 02:22:25;;;;;;;;;;;;;;;;;;1036636;28;1619;-48
2022/07/07 02:22:56;;;;;;;;;;;;;;;;;;1036088;28;3875;-49
2022/07/07 02:23:26;;;;;;;;;;;;;;;;;;1036399;28;2286;-49
2022/07/07 02:23:56;;;;;;;;;;;;;;;;;;1036086;28;3881;-52
2022/07/07 02:24:27;;;;;;;;;;;;;;;;;;1036195;28;1664;-51
2022/07/07 02:24:57;;;;;;;;;;;;;;;;;;1035345;28;4457;-51
2022/07/07 02:25:27;;;;;;;;;;;;;;;;;;1035873;28;3813;-52
2022/07/07 02:25:58;;;;;;;;;;;;;;;;;;1031880;28;3825;-47
2022/07/07 02:26:29;;;;;;;;;;;;;;;;;;1031665;28;1950;-49
2022/07/07 02:26:59;;;;;;;;;;;;;;;;;;1037442;28;3776;-54
2022/07/07 02:27:30;;;;;;;;;;;;;;;;;;1036339;28;3224;-51
2022/07/07 02:28:00;;;;;;;;;;;;;;;;;;1035351;28;3856;-47
2022/07/07 02:28:31;;;;;;;;;;;;;;;;;;1036992;28;2054;-45
2022/07/07 02:29:01;;;;;;;;;;;;;;;;;;1036436;28;3815;-47
2022/07/07 02:29:32;;;;;;;;;;;;;;;;;;1036648;28;1680;-50
2022/07/07 02:30:02;;;;;;;;;;;;;;;;;;1036058;28;3790;-50
2022/07/07 02:30:32;;;;;;;;;;;;;;;;;;1036056;28;1658;-50
2022/07/07 02:31:03;;;;;;;;;;;;;;;;;;1036058;28;3900;-51
2022/07/07 02:31:33;;;;;;;;;;;;;;;;;;1036992;28;1734;-46
2022/07/07 02:32:03;;;;;;;;;;;;;;;;;;1036084;28;3806;-51
2022/07/07 02:32:34;;;;;;;;;;;;;;;;;;1036602;28;1725;-48
2022/07/07 02:33:04;;;;;;;;;;;;;;;;;;1036113;28;3809;-48
2022/07/07 02:33:35;;;;;;;;;;;;;;;;;;1037357;28;1689;-46
2022/07/07 02:34:05;;;;;;;;;;;;;;;;;;1037525;28;4021;-50
2022/07/07 02:34:36;;;;;;;;;;;;;;;;;;1039470;28;3869;-51
2022/07/07 02:35:06;;;;;;;;;;;;;;;;;;1040897;28;3892;-48
2022/07/07 02:35:36;;;;;;;;;;;;;;;;;;1041433;28;4170;-49
2022/07/07 02:36:07;;;;;;;;;;;;;;;;;;1041641;28;3795;-49
2022/07/07 02:36:37;;;;;;;;;;;;;;;;;;1036083;28;2283;-48
2022/07/07 02:37:08;;;;;;;;;;;;;;;;;;1035487;28;3820;-50
2022/07/07 02:37:38;;;;;;;;;;;;;;;;;;1036848;28;3613;-47
2022/07/07 02:38:08;;;;;;;;;;;;;;;;;;1036247;28;4038;-46
2022/07/07 02:38:39;;;;;;;;;;;;;;;;;;1038120;28;1713;-51
2022/07/07 02:39:09;;;;;;;;;;;;;;;;;;1039508;28;3810;-47
2022/07/07 02:39:39;;;;;;;;;;;;;;;;;;1039825;28;3844;-48
2022/07/07 02:40:10;;;;;;;;;;;;;;;;;;1035992;28;4137;-48
2022/07/07 02:40:41;;;;;;;;;;;;;;;;;;1036756;28;1571;-45
2022/07/07 02:41:12;;;;;;;;;;;;;;;;;;1040226;28;4414;-49
2022/07/07 02:41:42;;;;;;;;;;;;;;;;;;1041352;28;1609;-49
2022/07/07 02:42:26;;;;;;;;;;;;;;;;;;1042496;28;3944;-50
2022/07/07 02:43:05;;;;;;;;;;;;;;;;;;1040920;28;3904;-51
2022/07/07 02:43:35;;;;;;;;;;;;;;;;;;1040278;28;3421;-50
2022/07/07 02:44:05;;;;;;;;;;;;;;;;;;1040926;28;3841;-51
2022/07/07 02:44:36;;;;;;;;;;;;;;;;;;1041481;28;2706;-48
2022/07/07 02:45:06;;;;;;;;;;;;;;;;;;1040979;28;3834;-48
2022/07/07 02:45:44;;;;;;;;;;;;;;;;;;1041179;28;1723;-51
2022/07/07 02:46:14;;;;;;;;;;;;;;;;;;1041438;28;3808;-51
2022/07/07 02:46:44;;;;;;;;;;;;;;;;;;1041461;28;1639;-47
2022/07/07 02:47:14;;;;;;;;;;;;;;;;;;1039915;28;3862;-53
2022/07/07 02:47:45;;;;;;;;;;;;;;;;;;1040048;28;4095;-53
2022/07/07 02:48:19;;;;;;;;;;;;;;;;;;1040457;28;3844;-51
2022/07/07 02:48:49;;;;;;;;;;;;;;;;;;1040896;28;1752;-50
2022/07/07 02:49:20;;;;;;;;;;;;;;;;;;1040802;28;3624;-50
2022/07/07 02:49:50;;;;;;;;;;;;;;;;;;1039476;28;3980;-47
2022/07/07 02:50:20;;;;;;;;;;;;;;;;;;1040387;28;1423;-46
2022/07/07 02:50:51;;;;;;;;;;;;;;;;;;1041619;28;4305;-51
2022/07/07 02:51:21;;;;;;;;;;;;;;;;;;1040840;28;3460;-53
2022/07/07 02:51:52;;;;;;;;;;;;;;;;;;1041474;28;4240;-49
2022/07/07 02:52:22;;;;;;;;;;;;;;;;;;1041099;28;1732;-46
2022/07/07 02:52:52;;;;;;;;;;;;;;;;;;1041200;28;3848;-49
2022/07/07 02:53:23;;;;;;;;;;;;;;;;;;1041458;28;1315;-49
2022/07/07 02:53:53;;;;;;;;;;;;;;;;;;1039992;28;3934;-50
2022/07/07 02:54:23;;;;;;;;;;;;;;;;;;1041252;28;1686;-47
2022/07/07 02:54:53;;;;;;;;;;;;;;;;;;1040149;28;3897;-47
2022/07/07 02:55:24;;;;;;;;;;;;;;;;;;1044710;28;2569;-49
2022/07/07 02:55:55;;;;;;;;;;;;;;;;;;1044939;28;3816;-49
2022/07/07 02:56:25;;;;;;;;;;;;;;;;;;1044805;28;1957;-51
2022/07/07 02:56:56;;;;;;;;;;;;;;;;;;1045280;28;3985;-48
2022/07/07 02:57:26;;;;;;;;;;;;;;;;;;1040016;28;3756;-48
2022/07/07 02:57:57;;;;;;;;;;;;;;;;;;1039063;28;4275;-48
2022/07/07 02:58:27;;;;;;;;;;;;;;;;;;1040961;28;2757;-54
2022/07/07 02:58:57;;;;;;;;;;;;;;;;;;1041026;28;4065;-48
2022/07/07 02:59:28;;;;;;;;;;;;;;;;;;1039090;28;3798;-48
2022/07/07 02:59:59;;;;;;;;;;;;;;;;;;1039850;28;3926;-49
2022/07/07 03:00:33;;;;;;;;;;;;;;;;;;1039515;28;2817;-48
2022/07/07 03:01:04;;;;;;;;;;;;;;;;;;1036535;28;3935;-53
2022/07/07 03:01:34;;;;;;;;;;;;;;;;;;1039864;28;1857;-49
2022/07/07 03:02:04;;;;;;;;;;;;;;;;;;1036308;28;4109;-51
2022/07/07 03:02:35;;;;;;;;;;;;;;;;;;1036199;28;1738;-53
2022/07/07 03:03:06;;;;;;;;;;;;;;;;;;1040872;28;3955;-49
2022/07/07 03:03:37;;;;;;;;;;;;;;;;;;1040683;28;3910;-50
2022/07/07 03:04:07;;;;;;;;;;;;;;;;;;1040188;28;3977;-51
2022/07/07 03:04:37;;;;;;;;;;;;;;;;;;1040164;28;1974;-51
2022/07/07 03:05:08;;;;;;;;;;;;;;;;;;1039918;28;4336;-48
2022/07/07 03:05:38;;;;;;;;;;;;;;;;;;1039974;28;1642;-52
2022/07/07 03:06:08;;;;;;;;;;;;;;;;;;1040279;28;3971;-49
2022/07/07 03:06:38;;;;;;;;;;;;;;;;;;1039975;28;2002;-47
2022/07/07 03:07:09;;;;;;;;;;;;;;;;;;1040012;28;3837;-48
2022/07/07 03:07:39;;;;;;;;;;;;;;;;;;1040743;28;2930;-50
2022/07/07 03:08:09;;;;;;;;;;;;;;;;;;1040902;28;3819;-52
2022/07/07 03:08:40;;;;;;;;;;;;;;;;;;1041761;28;1599;-52
2022/07/07 03:09:10;;;;;;;;;;;;;;;;;;1040307;28;4336;-52
2022/07/07 03:09:40;;;;;;;;;;;;;;;;;;1040312;28;1670;-49
2022/07/07 03:10:11;;;;;;;;;;;;;;;;;;1038179;28;3868;-51
2022/07/07 03:10:41;;;;;;;;;;;;;;;;;;1038055;28;2856;-51
2022/07/07 03:11:12;;;;;;;;;;;;;;;;;;1040483;28;4508;-47
2022/07/07 03:11:42;;;;;;;;;;;;;;;;;;1040223;28;4117;-52
2022/07/07 03:12:12;;;;;;;;;;;;;;;;;;1038395;28;5256;-47
2022/07/07 03:12:42;;;;;;;;;;;;;;;;;;1039458;28;2736;-52
2022/07/07 03:13:13;;;;;;;;;;;;;;;;;;1039109;28;4075;-48
2022/07/07 03:13:43;;;;;;;;;;;;;;;;;;1040414;28;1491;-54
2022/07/07 03:14:14;;;;;;;;;;;;;;;;;;1043246;28;4412;-51
2022/07/07 03:14:44;;;;;;;;;;;;;;;;;;1040793;28;1774;-48
2022/07/07 03:15:14;;;;;;;;;;;;;;;;;;1040361;28;3892;-49
2022/07/07 03:15:44;;;;;;;;;;;;;;;;;;1041948;28;1578;-47
2022/07/07 03:16:15;;;;;;;;;;;;;;;;;;1041437;28;4006;-51
2022/07/07 03:16:45;;;;;;;;;;;;;;;;;;1040840;28;3467;-49
2022/07/07 03:17:15;;;;;;;;;;;;;;;;;;1040240;28;5064;-48
2022/07/07 03:17:46;;;;;;;;;;;;;;;;;;1041208;28;1745;-48
2022/07/07 03:18:17;;;;;;;;;;;;;;;;;;1039515;28;3890;-47
2022/07/07 03:18:47;;;;;;;;;;;;;;;;;;1040859;28;2059;-51
2022/07/07 03:19:17;;;;;;;;;;;;;;;;;;1040859;28;3957;-47
2022/07/07 03:19:47;;;;;;;;;;;;;;;;;;1041389;28;1471;-49
2022/07/07 03:20:18;;;;;;;;;;;;;;;;;;1039873;28;3999;-51
2022/07/07 03:20:48;;;;;;;;;;;;;;;;;;1041239;28;3940;-51
2022/07/07 03:21:18;;;;;;;;;;;;;;;;;;1045353;28;4373;-49
2022/07/07 03:21:49;;;;;;;;;;;;;;;;;;1043856;28;3362;-45
2022/07/07 03:22:19;;;;;;;;;;;;;;;;;;1041133;28;3928;-47
2022/07/07 03:22:49;;;;;;;;;;;;;;;;;;1041467;28;1600;-48
2022/07/07 03:23:20;;;;;;;;;;;;;;;;;;1039798;28;3921;-53
2022/07/07 03:23:50;;;;;;;;;;;;;;;;;;1040620;28;3960;-50
2022/07/07 03:24:20;;;;;;;;;;;;;;;;;;1041638;28;1882;-50
2022/07/07 03:24:51;;;;;;;;;;;;;;;;;;1040710;28;4037;-48
2022/07/07 03:25:21;;;;;;;;;;;;;;;;;;1040298;28;1717;-50
2022/07/07 03:25:51;;;;;;;;;;;;;;;;;;1041767;28;3823;-49
2022/07/07 03:26:21;;;;;;;;;;;;;;;;;;1041078;28;1434;-49
2022/07/07 03:26:52;;;;;;;;;;;;;;;;;;1038871;28;3854;-46
2022/07/07 03:27:22;;;;;;;;;;;;;;;;;;1040962;28;1630;-49
2022/07/07 03:27:52;;;;;;;;;;;;;;;;;;1040166;28;4131;-47
2022/07/07 03:28:22;;;;;;;;;;;;;;;;;;1038516;28;6777;-48
2022/07/07 03:28:53;;;;;;;;;;;;;;;;;;1040327;28;3913;-51
2022/07/07 03:29:23;;;;;;;;;;;;;;;;;;1041790;28;2324;-49
2022/07/07 03:29:53;;;;;;;;;;;;;;;;;;1040915;28;3831;-50
2022/07/07 03:30:23;;;;;;;;;;;;;;;;;;1042105;28;1610;-47
2022/07/07 03:30:54;;;;;;;;;;;;;;;;;;1043578;28;3860;-48
2022/07/07 03:31:24;;;;;;;;;;;;;;;;;;1044815;28;3736;-50
2022/07/07 03:31:54;;;;;;;;;;;;;;;;;;1040642;28;3948;-51
2022/07/07 03:32:25;;;;;;;;;;;;;;;;;;1044009;28;3783;-47
2022/07/07 03:33:02;;;;;;;;;;;;;;;;;;1039153;28;3937;-49
2022/07/07 03:33:32;;;;;;;;;;;;;;;;;;1042313;28;1692;-50
2022/07/07 03:34:03;;;;;;;;;;;;;;;;;;1041489;28;3984;-51
2022/07/07 03:34:33;;;;;;;;;;;;;;;;;;1042141;28;1922;-51
2022/07/07 03:35:10;;;;;;;;;;;;;;;;;;1041437;28;4396;-48